Time;durP1;ratioP1;P1;durP2;ratioP2;P2;SDS_P1;SDS_P2;PMS_P1;PMS_P2;Temp;Humidity;BMP_temperature;BMP_pressure;BME280_temperature;BME280_humidity;BME280_pressure;Samples;Min_cycle;Max_cycle;Signal;HPM_P1;HPM_P2
2022/01/23 00:00:37;;;;;;;19.10;10.55;;;6.00;99.90;;;;;;5052545;28;20050;-65
2022/01/23 00:03:07;;;;;;;16.40;7.47;;;6.00;99.90;;;;;;5052354;28;20037;-66
2022/01/23 00:05:35;;;;;;;12.50;5.03;;;6.00;99.90;;;;;;5051297;28;20036;-66
2022/01/23 00:08:02;;;;;;;10.80;4.63;;;6.00;99.90;;;;;;5043852;28;20499;-66
2022/01/23 00:10:28;;;;;;;12.60;4.65;;;5.90;99.90;;;;;;5050249;28;20037;-67
2022/01/23 00:13:06;;;;;;;14.00;3.55;;;5.90;99.90;;;;;;5051540;28;20044;-68
2022/01/23 00:18:25;;;;;;;10.52;3.60;;;6.00;99.90;;;;;;5051403;28;20049;-67
2022/01/23 00:20:51;;;;;;;11.65;3.38;;;6.00;99.90;;;;;;5053031;28;20057;-68
2022/01/23 00:23:35;;;;;;;11.43;3.17;;;6.00;99.90;;;;;;5056861;28;20391;-67
2022/01/23 00:31:31;;;;;;;11.02;3.30;;;5.90;99.90;;;;;;5052006;28;20057;-65
2022/01/23 00:33:58;;;;;;;8.00;3.13;;;5.90;99.90;;;;;;5053940;28;20048;-66
2022/01/23 00:36:25;;;;;;;6.18;2.55;;;5.90;99.90;;;;;;5054836;28;20041;-66
2022/01/23 00:38:51;;;;;;;12.07;3.55;;;5.90;99.90;;;;;;5047870;28;20077;-67
2022/01/23 00:41:17;;;;;;;8.77;2.70;;;5.90;99.90;;;;;;5057642;28;20457;-67
2022/01/23 00:43:45;;;;;;;9.20;3.05;;;5.90;99.90;;;;;;5061809;28;20041;-68
2022/01/23 00:51:27;;;;;;;7.93;2.92;;;5.90;99.90;;;;;;5065236;28;20139;-66
2022/01/23 00:53:57;;;;;;;7.13;3.28;;;5.90;99.90;;;;;;5059690;28;20053;-67
2022/01/23 00:56:23;;;;;;;10.68;3.45;;;5.90;99.90;;;;;;5065835;28;20041;-66
2022/01/23 00:58:49;;;;;;;9.55;3.70;;;5.90;99.90;;;;;;5050578;28;20094;-65
2022/01/23 01:01:16;;;;;;;9.48;3.20;;;5.90;99.90;;;;;;5056771;28;20509;-66
2022/01/23 01:03:42;;;;;;;10.30;3.47;;;5.90;99.90;;;;;;5036902;28;20041;-69
2022/01/23 01:06:08;;;;;;;10.98;3.42;;;5.90;99.90;;;;;;5061902;28;20086;-66
2022/01/23 01:08:33;;;;;;;10.10;4.03;;;5.90;99.90;;;;;;5046207;28;20220;-66
2022/01/23 01:11:21;;;;;;;9.68;3.28;;;5.90;99.90;;;;;;5054777;28;20041;-66
2022/01/23 01:14:19;;;;;;;13.13;3.83;;;5.90;99.90;;;;;;5044222;28;20068;-68
2022/01/23 01:38:13;;;;;;;11.60;4.47;;;5.80;99.90;;;;;;5037071;28;20118;-66
2022/01/23 01:40:39;;;;;;;16.67;5.00;;;5.80;99.90;;;;;;5051944;28;20119;-69
2022/01/23 01:43:05;;;;;;;10.82;5.50;;;5.80;99.90;;;;;;5061918;28;20475;-65
2022/01/23 01:45:33;;;;;;;10.18;5.20;;;5.80;99.90;;;;;;5052028;28;20039;-66
2022/01/23 01:48:01;;;;;;;12.77;4.82;;;5.90;99.90;;;;;;5054466;28;20040;-66
2022/01/23 01:50:28;;;;;;;8.60;4.85;;;5.90;99.90;;;;;;5063000;28;20088;-66
2022/01/23 01:52:54;;;;;;;15.82;5.30;;;5.90;99.90;;;;;;5057312;28;20044;-66
2022/01/23 01:55:29;;;;;;;10.60;5.13;;;5.90;99.90;;;;;;5055545;28;20037;-66
2022/01/23 01:58:02;;;;;;;10.77;5.25;;;5.90;99.90;;;;;;5053682;28;20045;-66
2022/01/23 02:10:49;;;;;;;12.32;5.20;;;5.80;99.90;;;;;;5051971;28;20045;-67
2022/01/23 02:13:18;;;;;;;11.02;4.47;;;5.80;99.90;;;;;;5052760;28;20116;-67
2022/01/23 02:24:06;;;;;;;14.18;5.15;;;5.80;99.90;;;;;;5047469;28;20109;-66
2022/01/23 02:51:52;;;;;;;13.65;4.80;;;5.80;99.90;;;;;;5066629;28;20060;-66
2022/01/23 02:54:26;;;;;;;13.02;4.70;;;5.80;99.90;;;;;;5049689;28;20053;-65
2022/01/23 02:56:56;;;;;;;15.82;5.38;;;5.80;99.90;;;;;;5062439;28;20091;-67
2022/01/23 02:59:25;;;;;;;9.25;4.57;;;5.80;99.90;;;;;;5057214;28;20493;-66
2022/01/23 03:04:27;;;;;;;9.35;4.55;;;5.80;99.90;;;;;;5054257;28;20405;-67
2022/01/23 03:14:50;;;;;;;16.27;4.93;;;5.80;99.90;;;;;;5063224;28;20064;-66
2022/01/23 03:30:51;;;;;;;10.68;4.07;;;5.90;99.90;;;;;;5059118;28;20140;-66
2022/01/23 03:33:17;;;;;;;10.27;4.63;;;5.90;99.90;;;;;;5052966;28;20041;-68
2022/01/23 03:35:43;;;;;;;11.45;4.13;;;5.90;99.90;;;;;;5053700;28;20044;-66
2022/01/23 03:38:08;;;;;;;13.35;4.00;;;5.90;99.90;;;;;;5051773;28;20033;-66
2022/01/23 03:40:34;;;;;;;13.85;4.70;;;5.90;99.90;;;;;;5056849;28;20474;-65
2022/01/23 03:43:09;;;;;;;7.03;4.05;;;5.90;99.90;;;;;;5051052;28;20406;-66
2022/01/23 03:50:42;;;;;;;13.15;4.53;;;5.90;99.90;;;;;;5049854;28;20052;-66
2022/01/23 03:53:08;;;;;;;12.57;4.95;;;5.90;99.90;;;;;;5057070;28;20041;-66
2022/01/23 03:55:34;;;;;;;10.75;4.63;;;5.90;99.90;;;;;;5060530;28;20124;-67
2022/01/23 03:58:00;;;;;;;10.57;4.50;;;5.90;99.90;;;;;;5044867;28;20045;-67
2022/01/23 04:00:26;;;;;;;13.38;4.40;;;5.90;99.90;;;;;;5065291;28;20094;-66
2022/01/23 04:02:52;;;;;;;9.80;5.10;;;5.90;99.90;;;;;;5067378;28;20126;-66
2022/01/23 04:05:18;;;;;;;14.18;5.00;;;5.90;99.90;;;;;;5059411;28;20045;-66
2022/01/23 04:07:44;;;;;;;15.95;6.25;;;5.90;99.90;;;;;;5053608;28;20458;-67
2022/01/23 04:10:12;;;;;;;12.65;5.07;;;5.90;99.90;;;;;;5056404;28;20040;-66
2022/01/23 04:15:30;;;;;;;14.60;4.97;;;5.80;99.90;;;;;;5056925;28;20048;-67
2022/01/23 04:20:44;;;;;;;13.70;5.00;;;5.90;99.90;;;;;;5053723;28;20048;-67
2022/01/23 04:31:50;;;;;;;12.88;5.13;;;5.80;99.90;;;;;;5064966;28;20048;-69
2022/01/23 04:48:50;;;;;;;12.25;5.18;;;5.90;99.90;;;;;;5052411;28;20059;-67
2022/01/23 05:04:32;;;;;;;14.45;5.20;;;5.90;99.90;;;;;;5054694;28;20049;-66
2022/01/23 05:09:24;;;;;;;16.08;5.40;;;5.80;99.90;;;;;;5067424;28;20103;-65
2022/01/23 05:11:55;;;;;;;11.82;5.10;;;5.80;99.90;;;;;;5054115;28;20041;-65
2022/01/23 05:14:28;;;;;;;14.48;5.05;;;5.80;99.90;;;;;;5049688;28;20040;-66
2022/01/23 05:16:54;;;;;;;14.82;5.90;;;5.80;99.90;;;;;;5057753;28;20135;-66
2022/01/23 05:19:20;;;;;;;14.65;6.32;;;5.90;99.90;;;;;;5057085;28;20466;-65
2022/01/23 05:24:18;;;;;;;;;;;5.80;99.90;;;;;;5055637;28;20041;-66
2022/01/23 05:26:46;;;;;;;13.30;5.70;;;5.80;99.90;;;;;;5058043;28;19967;-64
2022/01/23 05:29:13;;;;;;;7.95;4.78;;;5.80;99.90;;;;;;5053387;28;20037;-66
2022/01/23 05:31:40;;;;;;;11.82;5.90;;;5.80;99.90;;;;;;5043936;28;20041;-66
2022/01/23 05:34:06;;;;;;;15.15;6.00;;;5.80;99.90;;;;;;5055991;28;20044;-67
2022/01/23 05:36:32;;;;;;;14.95;5.65;;;5.90;99.90;;;;;;5074747;28;20128;-65
2022/01/23 05:38:58;;;;;;;11.20;5.53;;;5.80;99.90;;;;;;5055317;28;20049;-66
2022/01/23 05:41:25;;;;;;;14.43;5.22;;;5.90;99.90;;;;;;5070397;28;20046;-67
2022/01/23 05:43:50;;;;;;;8.98;5.15;;;5.80;99.90;;;;;;5065244;28;20056;-67
2022/01/23 05:46:17;;;;;;;11.70;5.78;;;5.80;99.90;;;;;;5055482;28;20041;-66
2022/01/23 05:48:43;;;;;;;14.75;5.43;;;5.80;99.90;;;;;;5052741;28;20174;-66
2022/01/23 05:51:12;;;;;;;13.90;6.00;;;5.80;99.90;;;;;;5053929;28;20076;-66
2022/01/23 05:53:39;;;;;;;12.65;5.82;;;5.80;99.90;;;;;;5054308;28;20048;-66
2022/01/23 05:56:05;;;;;;;12.70;5.20;;;5.80;99.90;;;;;;5051142;28;20053;-66
2022/01/23 05:58:30;;;;;;;9.30;4.88;;;5.80;99.90;;;;;;5048791;28;20116;-67
2022/01/23 06:00:56;;;;;;;13.20;5.47;;;5.80;99.90;;;;;;5046820;28;20528;-67
2022/01/23 06:03:22;;;;;;;14.07;4.97;;;5.80;99.90;;;;;;5054338;28;20040;-66
2022/01/23 06:05:48;;;;;;;11.57;6.30;;;5.90;99.90;;;;;;5042422;28;20087;-65
2022/01/23 06:08:14;;;;;;;9.15;5.75;;;5.80;99.90;;;;;;5044353;28;20043;-65
2022/01/23 06:11:13;;;;;;;13.40;6.00;;;5.80;99.90;;;;;;5052666;28;20562;-66
2022/01/23 06:13:32;;;;;;;12.43;5.35;;;5.70;99.90;;;;;;5046579;28;20057;-65
2022/01/23 06:15:58;;;;;;;8.65;5.50;;;5.80;99.90;;;;;;5063021;28;20040;-66
2022/01/23 06:18:25;;;;;;;11.10;6.25;;;5.80;99.90;;;;;;5068972;28;20036;-67
2022/01/23 06:20:51;;;;;;;13.98;5.80;;;6.20;99.90;;;;;;5069063;28;20136;-65
2022/01/23 06:23:17;;;;;;;11.10;5.30;;;5.80;99.90;;;;;;5067680;28;20146;-65
2022/01/23 06:25:45;;;;;;;14.77;5.80;;;5.70;99.90;;;;;;5051257;28;20052;-66
2022/01/23 06:28:22;;;;;;;12.77;5.60;;;5.70;99.90;;;;;;5076066;28;20504;-66
2022/01/23 06:30:48;;;;;;;18.42;6.13;;;5.70;99.90;;;;;;5063804;28;20041;-66
2022/01/23 06:33:13;;;;;;;8.68;5.32;;;5.70;99.90;;;;;;5057093;28;20037;-66
2022/01/23 06:35:39;;;;;;;15.88;5.93;;;5.70;99.90;;;;;;5069601;28;20072;-66
2022/01/23 06:38:05;;;;;;;12.63;5.53;;;5.70;99.90;;;;;;5058881;28;20116;-66
2022/01/23 06:40:30;;;;;;;9.85;5.35;;;5.70;99.90;;;;;;5066310;28;20075;-65
2022/01/23 06:42:56;;;;;;;11.15;5.38;;;5.70;99.90;;;;;;5055264;28;20040;-65
2022/01/23 06:45:22;;;;;;;9.07;5.60;;;5.70;99.90;;;;;;5085828;28;20090;-66
2022/01/23 06:47:47;;;;;;;12.38;6.20;;;5.70;99.90;;;;;;5047586;28;20052;-65
2022/01/23 06:50:13;;;;;;;10.55;5.32;;;5.70;99.90;;;;;;5059881;28;20466;-67
2022/01/23 06:52:38;;;;;;;13.40;6.60;;;5.70;99.90;;;;;;5053031;28;20045;-65
2022/01/23 06:55:04;;;;;;;13.65;6.40;;;5.70;99.90;;;;;;5053273;28;20055;-67
2022/01/23 06:57:30;;;;;;;14.63;5.85;;;5.70;99.90;;;;;;5047410;28;20037;-65
2022/01/23 06:59:56;;;;;;;15.07;7.07;;;5.70;99.90;;;;;;5050835;28;20056;-64
2022/01/23 07:02:21;;;;;;;12.32;5.88;;;5.70;99.90;;;;;;5060366;28;20040;-67
2022/01/23 07:04:47;;;;;;;11.68;5.40;;;5.70;99.90;;;;;;5059211;28;20045;-65
2022/01/23 07:07:12;;;;;;;13.68;5.80;;;5.70;99.90;;;;;;5060379;28;20040;-65
2022/01/23 07:09:38;;;;;;;11.00;5.90;;;5.80;99.90;;;;;;5061700;28;20047;-66
2022/01/23 07:12:04;;;;;;;8.55;5.35;;;5.80;99.90;;;;;;5070230;28;20043;-65
2022/01/23 07:14:30;;;;;;;12.80;6.30;;;5.70;99.90;;;;;;5072374;28;20074;-66
2022/01/23 07:16:55;;;;;;;11.60;6.05;;;5.70;99.90;;;;;;5064109;28;20115;-66
2022/01/23 07:19:21;;;;;;;12.18;6.20;;;5.70;99.90;;;;;;5065258;28;20402;-66
2022/01/23 07:21:47;;;;;;;10.40;6.35;;;5.70;99.90;;;;;;5055060;28;20045;-65
2022/01/23 07:24:12;;;;;;;14.38;7.05;;;5.70;99.90;;;;;;5070332;28;20128;-65
2022/01/23 07:26:38;;;;;;;13.25;6.78;;;5.70;99.90;;;;;;5053149;28;20403;-66
2022/01/23 07:29:06;;;;;;;11.40;6.85;;;5.60;99.90;;;;;;5052932;28;20414;-65
2022/01/23 07:31:54;;;;;;;9.90;5.82;;;5.60;99.90;;;;;;5042791;28;20041;-66
2022/01/23 07:34:17;;;;;;;13.30;6.18;;;5.60;99.90;;;;;;5036287;28;20064;-65
2022/01/23 07:36:42;;;;;;;8.05;5.57;;;5.60;99.90;;;;;;5051775;28;20073;-64
2022/01/23 07:39:08;;;;;;;13.10;6.35;;;5.60;99.90;;;;;;5056712;28;20572;-65
2022/01/23 07:41:34;;;;;;;11.80;6.32;;;5.60;99.90;;;;;;5056942;28;20067;-67
2022/01/23 07:44:00;;;;;;;16.80;6.10;;;5.50;99.90;;;;;;5066280;28;20048;-67
2022/01/23 07:46:26;;;;;;;14.52;6.72;;;5.50;99.90;;;;;;5056974;28;20037;-65
2022/01/23 07:48:52;;;;;;;12.25;7.35;;;5.50;99.90;;;;;;5039084;28;20038;-66
2022/01/23 07:51:17;;;;;;;13.57;7.90;;;5.40;99.90;;;;;;5054068;28;20036;-65
2022/01/23 07:53:43;;;;;;;12.52;7.25;;;5.40;99.90;;;;;;5061565;28;20045;-66
2022/01/23 07:56:08;;;;;;;16.55;7.45;;;5.40;99.90;;;;;;5056648;28;20045;-66
2022/01/23 07:58:34;;;;;;;13.90;7.30;;;5.40;99.90;;;;;;5055557;28;20045;-65
2022/01/23 08:01:00;;;;;;;11.30;6.72;;;5.40;99.90;;;;;;5054414;28;20116;-66
2022/01/23 08:03:25;;;;;;;13.00;7.25;;;5.30;99.90;;;;;;5060213;28;20041;-65
2022/01/23 08:05:51;;;;;;;13.13;8.00;;;5.30;99.90;;;;;;5058042;28;20037;-66
2022/01/23 08:08:17;;;;;;;17.38;8.15;;;5.30;99.90;;;;;;5046951;28;20491;-65
2022/01/23 08:10:42;;;;;;;16.77;7.80;;;5.30;99.90;;;;;;5052105;28;20043;-65
2022/01/23 08:13:09;;;;;;;15.60;7.35;;;5.30;99.90;;;;;;5087328;28;20099;-66
2022/01/23 08:15:35;;;;;;;15.50;8.13;;;5.30;99.90;;;;;;5063338;28;20037;-66
2022/01/23 08:18:05;;;;;;;15.88;7.50;;;5.30;99.90;;;;;;5039885;28;20052;-65
2022/01/23 08:20:33;;;;;;;15.00;7.40;;;5.40;99.90;;;;;;5050571;28;20045;-66
2022/01/23 08:23:01;;;;;;;14.37;7.27;;;5.40;99.90;;;;;;5052667;28;20446;-67
2022/01/23 08:25:27;;;;;;;13.23;6.60;;;5.40;99.90;;;;;;5053452;28;20402;-66
2022/01/23 08:27:54;;;;;;;14.85;7.60;;;5.40;99.90;;;;;;5044706;28;20048;-66
2022/01/23 08:30:21;;;;;;;13.48;7.28;;;5.40;99.90;;;;;;5055236;28;20072;-65
2022/01/23 08:32:47;;;;;;;11.13;6.47;;;5.50;99.90;;;;;;5035151;28;20111;-65
2022/01/23 08:35:13;;;;;;;10.50;6.18;;;5.90;99.90;;;;;;5045294;28;20410;-67
2022/01/23 08:37:38;;;;;;;11.65;6.32;;;5.50;99.90;;;;;;5052771;28;20052;-66
2022/01/23 08:40:15;;;;;;;12.70;6.57;;;6.30;99.90;;;;;;5051310;28;20379;-67
2022/01/23 08:42:41;;;;;;;11.75;6.63;;;5.60;99.90;;;;;;5048675;28;20048;-66
2022/01/23 08:45:07;;;;;;;10.40;6.38;;;6.10;99.90;;;;;;5054920;28;20048;-66
2022/01/23 08:47:33;;;;;;;11.50;6.22;;;5.70;99.90;;;;;;5057020;28;20410;-66
2022/01/23 08:49:58;;;;;;;12.45;6.30;;;6.00;99.90;;;;;;5051695;28;20033;-66
2022/01/23 08:52:24;;;;;;;10.60;6.60;;;5.80;99.90;;;;;;5064775;28;20045;-66
2022/01/23 08:54:56;;;;;;;12.50;6.00;;;5.90;99.90;;;;;;5054945;28;20045;-69
2022/01/23 08:57:22;;;;;;;9.40;5.88;;;5.90;99.90;;;;;;5061470;28;20037;-66
2022/01/23 08:59:48;;;;;;;9.52;5.70;;;6.00;99.90;;;;;;5052600;28;20667;-66
2022/01/23 09:02:15;;;;;;;9.25;5.45;;;6.00;99.90;;;;;;5054028;28;20045;-66
2022/01/23 09:04:40;;;;;;;7.85;5.00;;;6.00;99.90;;;;;;5050739;28;20068;-66
2022/01/23 09:07:06;;;;;;;9.40;5.60;;;6.10;99.90;;;;;;5056999;28;20052;-66
2022/01/23 09:09:37;;;;;;;6.68;4.53;;;6.10;99.90;;;;;;5055743;28;20041;-66
2022/01/23 09:12:10;;;;;;;8.45;4.68;;;6.10;99.90;;;;;;5055728;28;20041;-67
2022/01/23 09:14:36;;;;;;;8.07;4.85;;;6.10;99.90;;;;;;5050130;28;20055;-67
2022/01/23 09:17:05;;;;;;;9.05;5.45;;;6.20;99.90;;;;;;5050290;28;20029;-67
2022/01/23 09:19:31;;;;;;;9.45;5.43;;;6.20;99.90;;;;;;5045863;28;20051;-67
2022/01/23 09:21:57;;;;;;;11.32;5.35;;;6.20;99.90;;;;;;5051513;28;20481;-66
2022/01/23 09:24:26;;;;;;;9.00;5.00;;;6.20;99.90;;;;;;5048909;28;20091;-67
2022/01/23 09:26:54;;;;;;;8.82;5.00;;;6.30;99.90;;;;;;5054972;28;20084;-66
2022/01/23 09:29:30;;;;;;;7.60;4.93;;;6.30;99.90;;;;;;5059248;28;20064;-66
2022/01/23 09:31:57;;;;;;;10.85;4.75;;;6.30;99.90;;;;;;5060170;28;20045;-66
2022/01/23 09:34:25;;;;;;;8.65;5.60;;;6.60;99.90;;;;;;5054833;28;20037;-68
2022/01/23 09:36:54;;;;;;;9.15;4.80;;;6.40;99.90;;;;;;5058671;28;20045;-65
2022/01/23 09:39:20;;;;;;;10.10;5.18;;;6.40;99.90;;;;;;5048643;28;20033;-68
2022/01/23 09:41:49;;;;;;;9.27;4.88;;;6.40;99.90;;;;;;5046216;28;20488;-67
2022/01/23 09:44:18;;;;;;;7.85;4.85;;;6.40;99.90;;;;;;5061365;28;20092;-67
2022/01/23 09:46:44;;;;;;;;;;;6.50;99.90;;;;;;5053679;28;20119;-66
2022/01/23 09:49:15;;;;;;;8.48;4.40;;;7.40;99.90;;;;;;5046634;28;19966;-66
2022/01/23 09:51:43;;;;;;;8.13;5.10;;;6.70;99.90;;;;;;5055880;28;20037;-66
2022/01/23 09:54:12;;;;;;;6.22;4.18;;;6.80;99.90;;;;;;5059601;28;20052;-68
2022/01/23 09:56:40;;;;;;;7.07;4.28;;;6.80;99.90;;;;;;5051389;28;20085;-66
2022/01/23 09:59:08;;;;;;;8.15;4.25;;;6.90;99.90;;;;;;5059500;28;20045;-66
2022/01/23 10:01:36;;;;;;;6.60;3.83;;;6.90;99.90;;;;;;5063310;28;20072;-66
2022/01/23 10:04:01;;;;;;;6.10;3.55;;;7.00;99.90;;;;;;5061854;28;20045;-67
2022/01/23 10:06:27;;;;;;;6.53;4.15;;;7.00;99.90;;;;;;5062595;28;20083;-67
2022/01/23 10:08:53;;;;;;;5.35;3.65;;;7.00;99.90;;;;;;5059831;28;20041;-67
2022/01/23 10:11:19;;;;;;;6.38;4.20;;;7.00;99.90;;;;;;5048481;28;20045;-67
2022/01/23 10:13:45;;;;;;;6.22;4.10;;;7.10;99.90;;;;;;5053417;28;20376;-66
2022/01/23 10:16:11;;;;;;;6.38;4.00;;;7.10;99.90;;;;;;5051787;28;20132;-68
2022/01/23 10:18:38;;;;;;;5.63;3.38;;;7.10;99.90;;;;;;5051629;28;20042;-67
2022/01/23 10:21:04;;;;;;;4.70;3.38;;;7.20;99.90;;;;;;5055562;28;20044;-68
2022/01/23 10:23:30;;;;;;;5.43;3.53;;;7.30;99.90;;;;;;5053700;28;20049;-67
2022/01/23 10:25:56;;;;;;;3.92;2.70;;;7.30;99.90;;;;;;5057044;28;20433;-67
2022/01/23 10:28:28;;;;;;;4.22;2.75;;;7.30;99.90;;;;;;5053498;28;20033;-67
2022/01/23 10:30:57;;;;;;;5.30;2.97;;;7.30;99.90;;;;;;5053491;28;20516;-65
2022/01/23 10:33:26;;;;;;;4.63;2.72;;;7.30;99.90;;;;;;5053718;28;20041;-68
2022/01/23 10:35:57;;;;;;;4.03;2.67;;;7.30;99.90;;;;;;5056898;28;20037;-66
2022/01/23 10:38:25;;;;;;;4.53;2.70;;;7.30;99.90;;;;;;5054420;28;20052;-66
2022/01/23 10:41:12;;;;;;;4.43;2.30;;;7.40;99.90;;;;;;5060437;28;20053;-67
2022/01/23 10:47:03;;;;;;;4.72;2.83;;;7.40;99.90;;;;;;5060198;28;20041;-66
2022/01/23 10:49:42;;;;;;;4.18;2.28;;;7.40;99.90;;;;;;5057818;28;20187;-66
2022/01/23 10:52:39;;;;;;;4.35;2.20;;;7.40;99.90;;;;;;5055826;28;20044;-67
2022/01/23 10:55:11;;;;;;;5.20;2.20;;;7.40;99.90;;;;;;5063781;28;20430;-66
2022/01/23 10:57:38;;;;;;;3.72;2.58;;;7.40;99.90;;;;;;5059225;28;20084;-67
2022/01/23 11:00:07;;;;;;;4.93;2.75;;;7.40;99.90;;;;;;5067640;28;20087;-67
2022/01/23 11:02:37;;;;;;;5.70;2.67;;;7.40;99.90;;;;;;5041250;28;20400;-67
2022/01/23 11:05:07;;;;;;;4.28;2.58;;;7.80;99.90;;;;;;5057338;28;20045;-67
2022/01/23 11:07:38;;;;;;;5.07;2.63;;;7.50;99.90;;;;;;5046645;28;20041;-65
2022/01/23 11:10:11;;;;;;;5.30;2.50;;;7.50;99.90;;;;;;5052985;28;20060;-67
2022/01/23 11:18:15;;;;;;;6.30;3.10;;;7.50;99.90;;;;;;5053728;28;20049;-66
2022/01/23 11:20:43;;;;;;;5.25;2.70;;;7.60;99.90;;;;;;5050014;28;20062;-66
2022/01/23 11:23:29;;;;;;;5.20;2.60;;;7.50;99.90;;;;;;5040356;28;20054;-66
2022/01/23 11:25:54;;;;;;;3.58;2.25;;;7.60;99.90;;;;;;5053558;28;20041;-67
2022/01/23 11:28:38;;;;;;;3.95;2.25;;;7.60;99.90;;;;;;5065005;28;20048;-66
2022/01/23 11:31:10;;;;;;;3.47;2.00;;;7.60;99.90;;;;;;5051537;28;20430;-67
2022/01/23 11:33:36;;;;;;;3.45;1.98;;;7.50;99.90;;;;;;5052089;28;20055;-67
2022/01/23 11:36:03;;;;;;;3.67;2.30;;;7.50;99.90;;;;;;5045893;28;20086;-67
2022/01/23 11:38:29;;;;;;;4.07;2.40;;;7.50;99.90;;;;;;5039830;28;20060;-68
2022/01/23 11:54:40;;;;;;;4.28;2.42;;;7.80;99.90;;;;;;5044717;28;20076;-67
2022/01/23 11:57:38;;;;;;;5.30;2.83;;;7.90;99.90;;;;;;5028182;28;20049;-68
2022/01/23 12:00:25;;;;;;;5.97;2.50;;;7.70;99.90;;;;;;5049709;28;20052;-66
2022/01/23 12:03:17;;;;;;;4.95;2.60;;;7.70;99.90;;;;;;5048612;28;20064;-66
2022/01/23 12:05:45;;;;;;;5.63;2.75;;;7.80;99.90;;;;;;5049261;28;20044;-66
2022/01/23 12:08:28;;;;;;;5.18;2.47;;;7.80;99.90;;;;;;5053995;28;20565;-67
2022/01/23 12:16:31;;;;;;;6.50;2.63;;;8.30;99.90;;;;;;5051707;28;20045;-66
2022/01/23 12:19:16;;;;;;;4.82;2.30;;;7.90;99.90;;;;;;5058755;28;20044;-68
2022/01/23 12:21:42;;;;;;;3.60;2.13;;;7.80;99.90;;;;;;5054869;28;20056;-67
2022/01/23 12:24:11;;;;;;;4.05;2.63;;;7.90;99.90;;;;;;5054461;28;20037;-67
2022/01/23 12:26:36;;;;;;;7.95;2.97;;;7.80;99.90;;;;;;5051356;28;20060;-70
2022/01/23 12:29:13;;;;;;;3.13;2.13;;;7.80;99.90;;;;;;5050093;28;20044;-67
2022/01/23 12:31:40;;;;;;;5.63;2.00;;;8.00;99.90;;;;;;5079444;28;20106;-68
2022/01/23 12:34:06;;;;;;;4.35;2.03;;;7.80;99.90;;;;;;5051491;28;20056;-68
2022/01/23 12:36:34;;;;;;;6.13;2.42;;;7.80;99.90;;;;;;5054999;28;20525;-66
2022/01/23 12:39:06;;;;;;;5.72;2.20;;;7.80;99.90;;;;;;5071431;28;20064;-68
2022/01/23 12:41:40;;;;;;;3.65;2.22;;;7.80;99.90;;;;;;5055214;28;20045;-66
2022/01/23 12:44:22;;;;;;;4.07;2.45;;;7.80;99.90;;;;;;5056543;28;20037;-67
2022/01/23 12:47:00;;;;;;;5.78;2.50;;;7.80;99.90;;;;;;5048321;28;20041;-66
2022/01/23 12:49:38;;;;;;;3.67;2.17;;;7.80;99.90;;;;;;5047279;28;20045;-68
2022/01/23 12:52:09;;;;;;;3.40;2.50;;;7.80;99.90;;;;;;5050563;28;20048;-68
2022/01/23 12:54:50;;;;;;;5.45;2.67;;;7.80;99.90;;;;;;5047352;28;20832;-68
2022/01/23 12:57:31;;;;;;;5.10;2.30;;;7.80;99.90;;;;;;5053410;28;20041;-69
2022/01/23 13:00:00;;;;;;;5.97;2.50;;;7.80;99.90;;;;;;5051189;28;20106;-70
2022/01/23 13:02:32;;;;;;;3.78;2.33;;;7.80;99.90;;;;;;5044517;28;20051;-67
2022/01/23 13:04:58;;;;;;;3.60;2.38;;;8.80;99.90;;;;;;5053353;28;20076;-67
2022/01/23 13:32:15;;;;;;;6.32;2.92;;;7.70;99.90;;;;;;5044233;28;20048;-68
2022/01/23 13:34:50;;;;;;;5.93;3.10;;;7.70;99.90;;;;;;5045658;28;20045;-69
2022/01/23 13:37:19;;;;;;;7.43;3.15;;;7.70;99.90;;;;;;5047656;28;20386;-67
2022/01/23 13:39:53;;;;;;;9.07;3.53;;;7.70;99.90;;;;;;5043458;28;20049;-68
2022/01/23 13:53:33;;;;;;;7.68;3.65;;;7.60;99.90;;;;;;5059318;28;20127;-69
2022/01/23 13:58:52;;;;;;;5.05;3.35;;;7.60;99.90;;;;;;5047673;28;20049;-68
2022/01/23 14:02:10;;;;;;;6.65;3.20;;;7.60;99.90;;;;;;5048786;28;20123;-68
2022/01/23 14:04:07;;;;;;;;;;;7.60;99.90;;;;;;5043700;28;20055;-67
2022/01/23 14:06:33;;;;;;;9.43;4.38;;;7.60;99.90;;;;;;5048735;28;20019;-68
2022/01/23 14:09:06;;;;;;;6.47;3.50;;;7.50;99.90;;;;;;5048276;28;20041;-67
2022/01/23 14:11:33;;;;;;;5.78;3.47;;;7.50;99.90;;;;;;5041902;28;20045;-67
2022/01/23 14:14:20;;;;;;;7.72;3.90;;;7.50;99.90;;;;;;5047476;28;20040;-67
2022/01/23 14:16:48;;;;;;;6.97;4.20;;;7.50;99.90;;;;;;5061651;28;20110;-67
2022/01/23 14:19:18;;;;;;;5.97;3.50;;;7.40;99.90;;;;;;5048727;28;20071;-68
2022/01/23 14:21:46;;;;;;;6.38;3.72;;;7.50;99.90;;;;;;5078181;28;20044;-68
2022/01/23 14:24:19;;;;;;;;;;;7.80;99.90;;;;;;5051212;28;20377;-70
2022/01/23 14:27:03;;;;;;;7.97;4.57;;;7.40;99.90;;;;;;5041041;28;19925;-67
2022/01/23 14:29:31;;;;;;;6.57;4.13;;;7.40;99.90;;;;;;5046968;28;20040;-68
2022/01/23 14:32:36;;;;;;;7.68;4.05;;;7.30;99.90;;;;;;5056600;28;20047;-68
2022/01/23 14:35:20;;;;;;;7.65;4.57;;;7.40;99.90;;;;;;5072545;28;20048;-68
2022/01/23 14:37:48;;;;;;;8.50;4.38;;;7.30;99.90;;;;;;5053936;28;20059;-68
2022/01/23 14:40:16;;;;;;;;;;;7.40;99.90;;;;;;5039140;28;20128;-70
2022/01/23 14:43:00;;;;;;;8.48;4.30;;;7.30;99.90;;;;;;5046358;28;19940;-71
2022/01/23 14:45:27;;;;;;;8.82;4.65;;;7.30;99.90;;;;;;5043031;28;20116;-68
2022/01/23 14:47:53;;;;;;;8.18;4.90;;;7.30;99.90;;;;;;5044943;28;20083;-66
2022/01/23 14:50:23;;;;;;;7.53;4.40;;;7.30;99.90;;;;;;5047069;28;20045;-67
2022/01/23 14:52:48;;;;;;;8.20;4.90;;;7.30;99.90;;;;;;5041834;28;20045;-68
2022/01/23 14:55:14;;;;;;;10.93;5.35;;;7.20;99.90;;;;;;5047763;28;20049;-67
2022/01/23 14:57:41;;;;;;;8.55;5.10;;;7.30;99.90;;;;;;5044165;28;20402;-67
2022/01/23 15:00:09;;;;;;;10.35;4.72;;;7.20;99.90;;;;;;5043393;28;20051;-66
2022/01/23 15:02:35;;;;;;;8.13;4.32;;;7.20;99.90;;;;;;5047004;28;20052;-69
2022/01/23 15:05:03;;;;;;;10.93;4.88;;;7.20;99.90;;;;;;5048685;28;20041;-66
2022/01/23 15:07:56;;;;;;;9.55;4.30;;;7.20;99.90;;;;;;5049651;28;20067;-67
2022/01/23 15:10:22;;;;;;;8.35;4.90;;;7.10;99.90;;;;;;5040634;28;20510;-68
2022/01/23 15:12:47;;;;;;;9.90;5.43;;;7.10;99.90;;;;;;5048966;28;20093;-66
2022/01/23 15:15:13;;;;;;;10.40;4.75;;;7.20;99.90;;;;;;5047453;28;20549;-68
2022/01/23 15:17:39;;;;;;;9.95;5.38;;;7.30;99.90;;;;;;5047854;28;20045;-68
2022/01/23 15:20:06;;;;;;;6.60;4.53;;;7.10;99.90;;;;;;5047226;28;20048;-67
2022/01/23 15:22:32;;;;;;;9.50;4.72;;;7.10;99.90;;;;;;5052145;28;20068;-68
2022/01/23 15:24:58;;;;;;;10.18;5.22;;;7.10;99.90;;;;;;5047158;28;20041;-68
2022/01/23 15:27:23;;;;;;;7.63;4.47;;;7.10;99.90;;;;;;5047732;28;20053;-66
2022/01/23 15:29:49;;;;;;;5.78;4.18;;;7.00;99.90;;;;;;5038503;28;20049;-68
2022/01/23 15:32:15;;;;;;;8.73;4.18;;;7.00;99.90;;;;;;5048948;28;20045;-66
2022/01/23 15:34:41;;;;;;;8.20;4.25;;;7.00;99.90;;;;;;5046284;28;20059;-68
2022/01/23 15:37:07;;;;;;;5.22;3.83;;;7.00;99.90;;;;;;5052332;28;20076;-69
2022/01/23 15:39:33;;;;;;;7.40;3.85;;;7.00;99.90;;;;;;5050780;28;20473;-68
2022/01/23 15:41:59;;;;;;;7.03;4.00;;;6.90;99.90;;;;;;5053583;28;20048;-68
2022/01/23 15:44:25;;;;;;;6.35;4.05;;;7.10;99.90;;;;;;5045461;28;20044;-70
2022/01/23 15:46:51;;;;;;;9.60;4.25;;;6.90;99.90;;;;;;5058841;28;20044;-69
2022/01/23 15:49:18;;;;;;;7.85;4.60;;;7.00;99.90;;;;;;5074492;28;20075;-67
2022/01/23 15:51:47;;;;;;;10.98;5.05;;;6.90;99.90;;;;;;5056321;28;20056;-68
2022/01/23 15:54:18;;;;;;;8.25;4.75;;;6.90;99.90;;;;;;5039120;28;20050;-67
2022/01/23 15:56:47;;;;;;;9.15;5.40;;;6.90;99.90;;;;;;5037799;28;20067;-67
2022/01/23 15:59:14;;;;;;;8.48;4.32;;;6.90;99.90;;;;;;5042137;28;20068;-66
2022/01/23 16:01:40;;;;;;;7.35;4.00;;;6.90;99.90;;;;;;5047360;28;20494;-68
2022/01/23 16:04:05;;;;;;;7.95;4.47;;;6.80;99.90;;;;;;5054971;28;20056;-67
2022/01/23 16:06:31;;;;;;;13.95;3.97;;;6.80;99.90;;;;;;5051545;28;20443;-67
2022/01/23 16:08:56;;;;;;;10.13;4.00;;;6.80;99.90;;;;;;5042849;28;20053;-69
2022/01/23 16:11:22;;;;;;;7.07;3.75;;;6.80;99.90;;;;;;5042088;28;20398;-69
2022/01/23 16:13:48;;;;;;;7.55;4.07;;;6.80;99.90;;;;;;5047976;28;21696;-68
2022/01/23 16:16:14;;;;;;;7.88;4.10;;;6.80;99.90;;;;;;5047982;28;20483;-70
2022/01/23 16:18:40;;;;;;;7.07;3.75;;;6.70;99.90;;;;;;5048716;28;20090;-70
2022/01/23 16:21:07;;;;;;;6.68;4.10;;;6.70;99.90;;;;;;5046690;28;20457;-69
2022/01/23 16:23:33;;;;;;;7.25;4.32;;;6.70;99.90;;;;;;5038689;28;20139;-70
2022/01/23 16:25:59;;;;;;;7.25;4.10;;;6.70;99.90;;;;;;5043686;28;20045;-70
2022/01/23 16:28:25;;;;;;;6.88;3.83;;;6.70;99.90;;;;;;5050051;28;20048;-68
2022/01/23 16:30:56;;;;;;;8.07;4.35;;;6.70;99.90;;;;;;5051480;28;20037;-68
2022/01/23 16:33:26;;;;;;;7.95;4.13;;;6.70;99.90;;;;;;5046148;28;20072;-65
2022/01/23 16:35:53;;;;;;;8.10;4.43;;;6.70;99.90;;;;;;5048450;28;20103;-66
2022/01/23 16:38:19;;;;;;;12.55;4.00;;;6.70;99.90;;;;;;5044853;28;20047;-69
2022/01/23 16:40:46;;;;;;;7.18;3.92;;;6.60;99.90;;;;;;5042522;28;20060;-69
2022/01/23 16:43:15;;;;;;;6.82;4.10;;;6.70;99.90;;;;;;5047811;28;20048;-68